Airfield :
LOGIN :

Register | Disclaimer

   EN    FR    IT 

 










Legend :    VFR   Marginal VFR   IFR   Intensive IFR   Very Intensive IFR
Visi :
Ceiling :
>= 8 km
>= 3000ft
5 to 8 km
1000 to 3000 ft
1500m to 5 km
500 to 1000 ft
800 to 1500m
200 to 500 ft
< 800m
< 200 ft
Symbols :   Thunderstorms  Fog  Heavy snow  Heavy precipitations  Wind > 20 kt
SIGMETs :     Misc.  Thunderstorms  Icing  Turbulence  Mountain Waves  Volcanic Ashes






- Airport Elevation : 268 ft
- IATA code : BFS


EGAA - Belfast Aldergrove

CURRENT METAR :
  • 032350Z 17005KT CAVOK 13/10 Q1014

EXPIRED METARs :
  • 032320Z 16005KT 130V190 CAVOK 12/10 Q1015
  • 032220Z 15005KT CAVOK 12/09 Q1015
  • 032150Z 15005KT CAVOK 13/09 Q1015
  • 032120Z 16004KT CAVOK 13/09 Q1016

TAF TAF EGAA
Valid from the 04 at 00:00 until the 05 at 00:00 UTC


032257Z 0400/0424 18008KT 9999 SCT045
BECMG 0402/0405 7000 RA
BECMG 0405/0408 19016G28KT 9999 -RA SCT004 BKN007
PROB30
TEMPO 0406/0410 4000 BR -DZ BKN004
BECMG 0409/0412 SCT012 BKN025
TEMPO 0411/0418 6000 RA
PROB30
TEMPO 0412/0418 3000 +RA BKN012
TEMPO 0418/0424 6000 -RADZ BKN008
BECMG 0419/0423 22014KT



MET'MAP, your aeronautical weather chart ! - Copyright ORBIFLY December 2007 - Disclaimer

ORBIFLY MET'MAP TEAM :

Programming & Development : Alexandra Zaïnal
Concept & original design : Baudouin d'Aumeries
Assistance for programming : Marc-Olivier Méhu
Technical & hardware support : Manuel Goepfert

Contact : metmap@orbifly.com




SOURCES & CREDITS :

   NOAA